createdAt,value
2018-06-22T00:01:50.932Z,100528.29
2018-06-22T00:04:25.034Z,100524.21
2018-06-22T00:07:03.587Z,100527.20
2018-06-22T00:09:36.746Z,100521.86
2018-06-22T00:12:10.465Z,100521.09
2018-06-22T00:14:45.232Z,100514.75
2018-06-22T00:17:20.833Z,100521.23
2018-06-22T00:19:56.432Z,100517.64
2018-06-22T00:22:29.927Z,100514.24
2018-06-22T00:25:05.833Z,100506.03
2018-06-22T00:28:01.702Z,100521.73
2018-06-22T00:31:13.325Z,100527.11
2018-06-22T00:33:59.052Z,100531.98
2018-06-22T00:36:32.824Z,100534.38
2018-06-22T00:39:10.679Z,100521.00
2018-06-22T00:41:47.365Z,100526.77
2018-06-22T00:44:22.063Z,100526.44
2018-06-22T00:46:56.412Z,100529.50
2018-06-22T00:49:31.400Z,100526.27
2018-06-22T00:52:08.228Z,100526.98
2018-06-22T00:54:42.448Z,100530.81
2018-06-22T00:57:18.213Z,100526.91
2018-06-22T00:59:52.204Z,100518.06
2018-06-22T01:02:25.926Z,100531.57
2018-06-22T01:04:59.870Z,100529.70
2018-06-22T01:07:33.578Z,100524.90
2018-06-22T01:10:06.837Z,100521.85
2018-06-22T01:12:42.983Z,100521.78
2018-06-22T01:15:18.836Z,100521.42
2018-06-22T01:17:53.820Z,100516.00
2018-06-22T01:20:29.761Z,100518.59
2018-06-22T01:23:03.542Z,100520.56
2018-06-22T01:25:38.471Z,100527.06
2018-06-22T01:28:11.929Z,100529.77
2018-06-22T01:30:46.532Z,100514.23
2018-06-22T01:33:20.259Z,100513.19
2018-06-22T01:35:53.602Z,100505.38
2018-06-22T01:38:24.895Z,100514.66
2018-06-22T01:41:01.450Z,100512.45
2018-06-22T01:43:35.894Z,100511.95
2018-06-22T01:46:09.975Z,100518.95
2018-06-22T01:48:45.049Z,100512.64
2018-06-22T01:51:19.112Z,100506.06
2018-06-22T01:53:53.534Z,100503.75
2018-06-22T01:56:27.475Z,100505.31
2018-06-22T01:59:00.859Z,100510.06
2018-06-22T02:01:34.021Z,100507.18
2018-06-22T02:04:07.135Z,100503.95
2018-06-22T02:06:41.302Z,100515.37
2018-06-22T02:09:15.460Z,100508.62
2018-06-22T02:11:49.403Z,100509.62
2018-06-22T02:14:22.556Z,100513.38
2018-06-22T02:16:55.756Z,100510.79
2018-06-22T02:19:29.928Z,100501.33
2018-06-22T02:22:03.201Z,100505.88
2018-06-22T02:24:37.176Z,100497.87
2018-06-22T02:27:10.434Z,100502.93
2018-06-22T02:29:43.712Z,100496.62
2018-06-22T02:32:15.485Z,100498.90
2018-06-22T02:34:49.284Z,100503.75
2018-06-22T02:37:22.500Z,100496.80
2018-06-22T02:39:57.820Z,100413.16
2018-06-22T02:42:31.219Z,100495.78
2018-06-22T02:45:06.694Z,100508.83
2018-06-22T02:47:46.094Z,100497.97
2018-06-22T02:50:20.354Z,100504.28
2018-06-22T02:52:53.959Z,100501.95
2018-06-22T02:55:27.196Z,100504.47
2018-06-22T02:58:00.453Z,100499.14
2018-06-22T03:00:34.944Z,100500.48
2018-06-22T03:03:07.920Z,100499.67
2018-06-22T03:05:41.748Z,100498.61
2018-06-22T03:08:15.932Z,100486.81
2018-06-22T03:10:49.704Z,100492.19
2018-06-22T03:13:23.081Z,100483.84
2018-06-22T03:15:58.058Z,100491.61
2018-06-22T03:18:31.398Z,100481.50
2018-06-22T03:21:07.957Z,100491.33
2018-06-22T03:23:42.671Z,100492.99
2018-06-22T03:26:17.375Z,100466.27
2018-06-22T03:28:49.670Z,100472.13
2018-06-22T03:31:23.654Z,100435.53
2018-06-22T03:33:56.937Z,100490.94
2018-06-22T03:36:31.200Z,100486.48
2018-06-22T03:39:07.689Z,100503.23
2018-06-22T03:41:44.114Z,100505.70
2018-06-22T03:44:17.432Z,100508.88
2018-06-22T03:46:51.971Z,100515.22
2018-06-22T03:49:27.586Z,100533.02
2018-06-22T03:52:00.633Z,100535.58
2018-06-22T03:54:33.848Z,100541.50
2018-06-22T03:57:07.075Z,100546.48
2018-06-22T03:59:43.939Z,100536.83
2018-06-22T04:02:16.977Z,100531.87
2018-06-22T04:04:51.700Z,100530.67
2018-06-22T04:07:24.977Z,100529.25
2018-06-22T04:10:02.199Z,100517.86
2018-06-22T04:12:36.160Z,100511.87
2018-06-22T04:15:09.761Z,100505.23
2018-06-22T04:17:52.700Z,100447.20
2018-06-22T04:20:27.005Z,100512.77
2018-06-22T04:23:00.240Z,100497.58
2018-06-22T04:25:35.637Z,100501.31
2018-06-22T04:28:08.905Z,100503.33
2018-06-22T04:30:45.216Z,100503.63
2018-06-22T04:33:18.459Z,100490.73
2018-06-22T04:35:52.050Z,100493.81
2018-06-22T04:38:25.372Z,100488.93
2018-06-22T04:40:58.631Z,100490.61
2018-06-22T04:43:32.236Z,100487.27
2018-06-22T04:46:06.173Z,100471.80
2018-06-22T04:48:40.805Z,100501.00
2018-06-22T04:51:14.430Z,100479.49
2018-06-22T04:53:51.879Z,100474.41
2018-06-22T04:56:26.491Z,100483.96
2018-06-22T04:58:59.883Z,100478.03
2018-06-22T05:01:33.575Z,100476.97
2018-06-22T05:04:07.179Z,100470.00
2018-06-22T05:06:42.069Z,100463.73
2018-06-22T05:09:16.952Z,100458.16
2018-06-22T05:12:02.943Z,100460.75
2018-06-22T05:14:40.061Z,100465.92
2018-06-22T05:17:17.092Z,100473.41
2018-06-22T05:19:53.723Z,100471.31
2018-06-22T05:22:30.560Z,100470.95
2018-06-22T05:25:33.907Z,100469.20
2018-06-22T05:28:11.478Z,100467.67
2018-06-22T05:33:27.360Z,100487.97
2018-06-22T05:36:01.380Z,100480.39
2018-06-22T05:38:36.364Z,100484.30
2018-06-22T05:41:09.880Z,100495.28
2018-06-22T05:43:42.991Z,100495.58
2018-06-22T05:46:19.629Z,100499.07
2018-06-22T05:48:53.409Z,100511.67
2018-06-22T05:51:27.543Z,100505.27
2018-06-22T05:54:04.755Z,100515.91
2018-06-22T05:56:38.893Z,100489.36
2018-06-22T05:59:13.543Z,100514.42
2018-06-22T06:01:50.290Z,100527.70
2018-06-22T06:04:24.730Z,100528.39
2018-06-22T06:07:18.484Z,100530.08
2018-06-22T06:09:54.804Z,100526.91
2018-06-22T06:12:27.828Z,100538.85
2018-06-22T06:15:06.565Z,100537.55
2018-06-22T06:17:39.845Z,100540.63
2018-06-22T06:20:17.983Z,100552.88
2018-06-22T06:22:54.494Z,100531.73
2018-06-22T06:25:28.718Z,100541.28
2018-06-22T06:28:02.753Z,100547.52
2018-06-22T06:30:36.549Z,100540.66
2018-06-22T06:33:13.887Z,100533.14
2018-06-22T06:36:44.054Z,100544.48
2018-06-22T06:39:19.133Z,100532.42
2018-06-22T06:41:57.264Z,100550.22
2018-06-22T06:44:49.513Z,100563.00
2018-06-22T06:47:28.430Z,100559.47
2018-06-22T06:50:02.873Z,100563.02
2018-06-22T06:52:38.409Z,100568.11
2018-06-22T06:55:13.771Z,100556.01
2018-06-22T06:57:50.665Z,100581.86
2018-06-22T07:00:48.968Z,100590.54
2018-06-22T07:03:25.284Z,100588.09
2018-06-22T07:06:06.441Z,100584.75
2018-06-22T07:09:00.666Z,100586.10
2018-06-22T07:11:52.160Z,100576.22
2018-06-22T07:14:29.668Z,100568.70
2018-06-22T07:17:05.988Z,100572.52
2018-06-22T07:22:09.113Z,100569.22
2018-06-22T07:24:50.826Z,100579.05
2018-06-22T07:27:27.019Z,100574.03
2018-06-22T07:30:03.900Z,100582.67
2018-06-22T07:32:38.134Z,100582.43
2018-06-22T07:35:12.516Z,100570.45
2018-06-22T07:37:57.229Z,100622.92
2018-06-22T07:40:31.443Z,100574.64
2018-06-22T07:43:09.589Z,100562.81
2018-06-22T07:45:45.137Z,100569.25
2018-06-22T07:48:21.408Z,100560.85
2018-06-22T07:50:56.934Z,100556.80
2018-06-22T07:53:35.953Z,100564.86
2018-06-22T07:56:13.614Z,100550.52
2018-06-22T07:58:47.503Z,100543.27
2018-06-22T08:01:21.429Z,100543.13
2018-06-22T08:03:57.806Z,100535.92
2018-06-22T08:06:32.189Z,100559.42
2018-06-22T08:09:15.696Z,100553.04
2018-06-22T08:11:49.251Z,100546.55
2018-06-22T08:14:22.694Z,100549.30
2018-06-22T08:16:58.976Z,100561.89
2018-06-22T08:19:33.870Z,100560.49
2018-06-22T08:22:08.918Z,100567.00
2018-06-22T08:24:43.647Z,100572.97
2018-06-22T08:27:17.261Z,100574.55
2018-06-22T08:30:05.102Z,100557.47
2018-06-22T08:32:39.518Z,100575.80
2018-06-22T08:35:13.524Z,100568.00
2018-06-22T08:37:47.640Z,100573.89
2018-06-22T08:40:22.444Z,100570.29
2018-06-22T08:42:58.032Z,100580.81
2018-06-22T08:45:31.309Z,100589.44
2018-06-22T08:48:07.798Z,100583.66
2018-06-22T08:50:43.516Z,100582.50
2018-06-22T08:53:27.385Z,100582.63
2018-06-22T08:56:02.255Z,100580.18
2018-06-22T08:58:36.132Z,100576.34
2018-06-22T09:01:10.695Z,100583.21
2018-06-22T09:03:44.048Z,100580.92
2018-06-22T09:06:22.735Z,100585.11
2018-06-22T09:08:59.293Z,100582.83
2018-06-22T09:11:34.732Z,100581.11
2018-06-22T09:14:09.967Z,100572.56
2018-06-22T09:16:48.888Z,100593.41
2018-06-22T09:19:24.756Z,100583.20
2018-06-22T09:21:58.992Z,100584.30
2018-06-22T09:24:34.070Z,100597.33
2018-06-22T09:27:08.149Z,100596.91
2018-06-22T09:29:42.573Z,100594.23
2018-06-22T09:32:24.630Z,100586.34
2018-06-22T09:35:00.199Z,100590.89
2018-06-22T09:37:33.100Z,100599.30
2018-06-22T09:40:06.404Z,100588.01
2018-06-22T09:42:45.306Z,100607.95
2018-06-22T09:45:18.872Z,100602.54
2018-06-22T09:47:50.559Z,100605.30
2018-06-22T09:50:32.372Z,100594.59
2018-06-22T09:53:09.658Z,100602.28
2018-06-22T09:55:44.962Z,100608.17
2018-06-22T09:58:23.341Z,100602.56
2018-06-22T10:00:58.009Z,100613.30
2018-06-22T10:03:32.826Z,100628.27
2018-06-22T10:06:07.628Z,100585.58
2018-06-22T10:08:43.024Z,100628.78
2018-06-22T10:11:18.727Z,100623.52
2018-06-22T10:13:57.966Z,100631.16
2018-06-22T10:16:32.385Z,100632.52
2018-06-22T10:19:08.106Z,100618.16
2018-06-22T10:21:45.260Z,100643.13
2018-06-22T10:24:16.804Z,100640.03
2018-06-22T10:26:50.387Z,100636.87
2018-06-22T10:29:32.261Z,100636.34
2018-06-22T10:32:06.512Z,100626.84
2018-06-22T10:34:41.511Z,100638.02
2018-06-22T10:37:19.429Z,100632.27
2018-06-22T10:39:57.783Z,100630.66
2018-06-22T10:42:30.493Z,100628.66
2018-06-22T10:45:07.725Z,100620.86
2018-06-22T10:47:41.200Z,100625.34
2018-06-22T10:50:18.248Z,100627.97
2018-06-22T10:52:52.536Z,100613.20
2018-06-22T10:55:27.763Z,100619.23
2018-06-22T10:58:03.346Z,100629.41
2018-06-22T11:00:38.234Z,100617.00
2018-06-22T11:03:15.710Z,100636.91
2018-06-22T11:05:52.399Z,100638.48
2018-06-22T11:08:31.585Z,100635.27
2018-06-22T11:11:07.576Z,100636.87
2018-06-22T11:13:43.797Z,100629.96
2018-06-22T11:16:22.654Z,100637.70
2018-06-22T11:19:10.221Z,100625.89
2018-06-22T11:24:56.354Z,100639.88
2018-06-22T11:27:33.844Z,100615.19
2018-06-22T11:30:13.042Z,100639.74
2018-06-22T11:32:56.441Z,100625.05
2018-06-22T11:35:40.942Z,100624.05
2018-06-22T11:38:26.556Z,100624.47
2018-06-22T11:41:02.792Z,100624.98
2018-06-22T11:43:40.189Z,100616.34
2018-06-22T11:46:17.413Z,100620.36
2018-06-22T11:49:01.152Z,100627.15
2018-06-22T11:51:37.419Z,100624.66
2018-06-22T11:54:19.248Z,100623.48
2018-06-22T11:56:57.174Z,100634.66
2018-06-22T11:59:36.576Z,100623.66
2018-06-22T12:02:16.734Z,100631.77
2018-06-22T12:04:55.274Z,100629.66
2018-06-22T12:07:36.607Z,100640.69
2018-06-22T12:10:19.351Z,100629.94
2018-06-22T12:12:53.598Z,100632.89
2018-06-22T12:15:30.765Z,100634.59
2018-06-22T12:18:10.979Z,100623.45
2018-06-22T12:20:56.434Z,100611.27
2018-06-22T12:23:33.333Z,100629.65
2018-06-22T12:26:09.379Z,100622.53
2018-06-22T12:28:43.454Z,100626.06
2018-06-22T12:31:18.657Z,100607.56
2018-06-22T12:33:52.041Z,100619.55
2018-06-22T12:36:25.861Z,100604.58
2018-06-22T12:39:00.025Z,100626.80
2018-06-22T12:41:36.537Z,100625.06
2018-06-22T12:44:09.660Z,100625.67
2018-06-22T12:46:42.900Z,100616.09
2018-06-22T12:49:19.387Z,100617.97
2018-06-22T12:51:54.213Z,100613.06
2018-06-22T12:54:28.664Z,100609.67
2018-06-22T12:57:03.451Z,100618.59
2018-06-22T12:59:38.366Z,100614.69
2018-06-22T13:02:12.688Z,100606.63
2018-06-22T13:04:48.172Z,100607.36
2018-06-22T13:07:24.962Z,100601.99
2018-06-22T13:10:00.384Z,100609.44
2018-06-22T13:12:35.035Z,100593.34
2018-06-22T13:15:15.952Z,100613.03
2018-06-22T13:17:51.273Z,100620.17
2018-06-22T13:20:25.908Z,100620.28
2018-06-22T13:23:03.876Z,100625.59
2018-06-22T13:25:36.940Z,100629.70
2018-06-22T13:28:09.346Z,100637.49
2018-06-22T13:30:45.082Z,100638.33
2018-06-22T13:33:18.400Z,100642.42
2018-06-22T13:35:54.771Z,100637.64
2018-06-22T13:38:27.455Z,100634.88
2018-06-22T13:41:02.284Z,100645.25
2018-06-22T13:43:39.987Z,100638.38
2018-06-22T13:46:15.809Z,100641.53
2018-06-22T13:48:48.244Z,100622.88
2018-06-22T13:51:20.753Z,100638.56
2018-06-22T13:53:55.780Z,100639.23
2018-06-22T13:56:31.187Z,100645.48
2018-06-22T13:59:10.316Z,100657.98
2018-06-22T14:01:43.968Z,100643.52
2018-06-22T14:04:21.240Z,100640.48
2018-06-22T14:06:58.418Z,100645.56
2018-06-22T14:12:42.465Z,100645.31
2018-06-22T14:15:27.106Z,100606.31
2018-06-22T14:18:06.467Z,100651.45
2018-06-22T14:20:46.249Z,100648.73
2018-06-22T14:23:20.770Z,100642.95
2018-06-22T14:25:53.119Z,100640.00
2018-06-22T14:28:27.181Z,100635.92
2018-06-22T14:31:01.035Z,100635.95
2018-06-22T14:33:35.579Z,100636.49
2018-06-22T14:36:09.405Z,100639.13
2018-06-22T14:38:43.718Z,100643.77
2018-06-22T14:41:19.243Z,100650.28
2018-06-22T14:43:54.158Z,100638.41
2018-06-22T14:46:28.559Z,100642.54
2018-06-22T14:49:05.240Z,100650.16
2018-06-22T14:51:39.818Z,100651.86
2018-06-22T14:54:19.306Z,100644.77
2018-06-22T14:56:58.168Z,100653.64
2018-06-22T14:59:38.497Z,100646.78
2018-06-22T15:02:19.439Z,100657.66
2018-06-22T15:04:59.877Z,100654.20
2018-06-22T15:07:39.396Z,100644.20
2018-06-22T15:10:14.035Z,100641.45
2018-06-22T15:12:50.908Z,100658.81
2018-06-22T15:15:23.949Z,100652.95
2018-06-22T15:18:00.192Z,100656.31
2018-06-22T15:20:40.431Z,100654.91
2018-06-22T15:23:18.572Z,100651.25
2018-06-22T15:25:55.463Z,100641.44
2018-06-22T15:28:29.908Z,100636.83
2018-06-22T15:31:05.728Z,100591.23
2018-06-22T15:33:43.984Z,100648.62
2018-06-22T15:36:23.429Z,100647.47
2018-06-22T15:39:01.720Z,100639.92
2018-06-22T15:41:40.668Z,100638.55
2018-06-22T15:44:19.947Z,100643.58
2018-06-22T15:47:04.523Z,100648.86
2018-06-22T15:49:43.633Z,100658.59
2018-06-22T15:52:22.524Z,100656.91
2018-06-22T15:55:20.278Z,100651.64
2018-06-22T15:57:57.058Z,100679.03
2018-06-22T16:00:33.437Z,100655.08
2018-06-22T16:03:12.415Z,100655.66
2018-06-22T16:05:47.401Z,100657.58
2018-06-22T16:08:22.847Z,100666.32
2018-06-22T16:10:57.715Z,100672.06
2018-06-22T16:13:31.905Z,100669.06
2018-06-22T16:16:10.426Z,100663.48
2018-06-22T16:18:48.805Z,100673.83
2018-06-22T16:21:28.409Z,100670.89
2018-06-22T16:24:12.653Z,100674.50
2018-06-22T16:26:52.958Z,100677.97
2018-06-22T16:29:29.700Z,100677.29
2018-06-22T16:32:03.578Z,100680.65
2018-06-22T16:34:38.784Z,100679.78
2018-06-22T16:37:18.028Z,100678.07
2018-06-22T16:39:53.376Z,100675.78
2018-06-22T16:42:28.052Z,100686.81
2018-06-22T16:45:04.579Z,100672.63
2018-06-22T16:50:15.470Z,100687.25
2018-06-22T16:52:49.460Z,100684.70
2018-06-22T16:55:23.306Z,100681.95
2018-06-22T16:57:56.657Z,100683.84
2018-06-22T17:00:30.576Z,100685.52
2018-06-22T17:03:05.022Z,100690.33
2018-06-22T17:05:42.510Z,100686.92
2018-06-22T17:08:22.395Z,100689.32
2018-06-22T17:11:02.462Z,100686.16
2018-06-22T17:13:42.468Z,100681.97
2018-06-22T17:18:24.627Z,100680.41
2018-06-22T17:23:59.712Z,100684.70
2018-06-22T17:26:33.164Z,100691.62
2018-06-22T17:29:07.329Z,100690.50
2018-06-22T17:31:42.343Z,100689.06
2018-06-22T17:34:16.883Z,100691.92
2018-06-22T17:36:58.608Z,100700.02
2018-06-22T17:39:35.484Z,100705.20
2018-06-22T17:42:13.192Z,100689.74
2018-06-22T17:44:48.245Z,100701.09
2018-06-22T17:47:31.099Z,100693.26
2018-06-22T17:50:12.487Z,100592.95
2018-06-22T17:52:49.836Z,100688.51
2018-06-22T17:55:25.417Z,100699.03
2018-06-22T17:58:03.577Z,100692.89
2018-06-22T18:00:49.261Z,100663.41
2018-06-22T18:03:31.182Z,100675.11
2018-06-22T18:06:10.789Z,100698.16
2018-06-22T18:08:48.236Z,100684.30
2018-06-22T18:11:28.771Z,100687.70
2018-06-22T18:14:02.180Z,100684.41
2018-06-22T18:16:37.104Z,100686.69
2018-06-22T18:19:10.434Z,100690.46
2018-06-22T18:21:43.863Z,100699.70
2018-06-22T18:24:18.428Z,100691.04
2018-06-22T18:26:51.812Z,100692.13
2018-06-22T18:29:26.825Z,100685.64
2018-06-22T18:32:02.531Z,100685.25
2018-06-22T18:34:37.589Z,100687.30
2018-06-22T18:37:14.224Z,100685.63
2018-06-22T18:39:50.184Z,100685.48
2018-06-22T18:42:26.491Z,100686.24
2018-06-22T18:45:06.632Z,100684.77
2018-06-22T18:47:41.880Z,100683.47
2018-06-22T18:50:15.351Z,100682.41
2018-06-22T18:52:52.512Z,100687.71
2018-06-22T18:55:31.489Z,100686.97
2018-06-22T18:58:09.948Z,100673.84
2018-06-22T19:00:50.104Z,100691.88
2018-06-22T19:03:28.580Z,100687.35
2018-06-22T19:06:03.447Z,100692.44
2018-06-22T19:08:41.285Z,100688.95
2018-06-22T19:11:16.509Z,100693.53
2018-06-22T19:13:52.617Z,100691.48
2018-06-22T19:16:27.412Z,100695.47
2018-06-22T19:19:01.125Z,100697.70
2018-06-22T19:21:36.880Z,100700.14
2018-06-22T19:24:13.511Z,100693.97
2018-06-22T19:26:48.312Z,100697.50
2018-06-22T19:29:25.848Z,100693.05
2018-06-22T19:32:02.587Z,100696.24
2018-06-22T19:34:51.914Z,100698.58
2018-06-22T19:37:27.219Z,100690.80
2018-06-22T19:40:02.659Z,100708.88
2018-06-22T19:42:40.592Z,100702.48
2018-06-22T19:45:22.802Z,100711.23
2018-06-22T19:48:01.143Z,100722.27
2018-06-22T19:50:40.733Z,100730.12
2018-06-22T19:53:19.984Z,100721.32
2018-06-22T19:56:08.419Z,100732.84
2018-06-22T19:58:43.386Z,100726.97
2018-06-22T20:01:37.298Z,100724.63
2018-06-22T20:04:12.350Z,100729.30
2018-06-22T20:06:47.241Z,100743.14
2018-06-22T20:09:27.389Z,100747.41
2018-06-22T20:12:03.813Z,100740.24
2018-06-22T20:14:38.533Z,100750.97
2018-06-22T20:17:12.880Z,100752.64
2018-06-22T20:19:51.505Z,100753.88
2018-06-22T20:22:29.878Z,100745.23
2018-06-22T20:25:09.660Z,100750.66
2018-06-22T20:27:45.553Z,100749.39
2018-06-22T20:30:32.233Z,100752.20
2018-06-22T20:33:07.190Z,100745.23
2018-06-22T20:35:46.166Z,100753.03
2018-06-22T20:38:25.220Z,100752.93
2018-06-22T20:41:11.539Z,100752.63
2018-06-22T20:43:53.069Z,100752.20
2018-06-22T20:46:33.369Z,100758.03
2018-06-22T20:49:13.321Z,100754.55
2018-06-22T20:51:49.294Z,100754.84
2018-06-22T20:54:25.345Z,100758.61
2018-06-22T20:56:59.516Z,100751.12
2018-06-22T20:59:33.492Z,100754.05
2018-06-22T21:02:12.904Z,100750.89
2018-06-22T21:04:47.112Z,100748.54
2018-06-22T21:07:28.252Z,100753.33
2018-06-22T21:10:05.861Z,100747.48
2018-06-22T21:12:46.253Z,100750.16
2018-06-22T21:15:22.237Z,100753.45
2018-06-22T21:17:53.933Z,100749.36
2018-06-22T21:20:28.703Z,100760.44
2018-06-22T21:23:03.407Z,100749.37
2018-06-22T21:26:07.376Z,100749.69
2018-06-22T21:28:46.538Z,100756.02
2018-06-22T21:34:26.629Z,100753.96
2018-06-22T21:37:06.198Z,100764.12
2018-06-22T21:39:43.985Z,100756.11
2018-06-22T21:42:23.867Z,100749.41
2018-06-22T21:44:58.489Z,100759.30
2018-06-22T21:47:39.371Z,100763.02
2018-06-22T21:50:14.365Z,100754.69
2018-06-22T21:52:53.101Z,100761.28
2018-06-22T21:55:33.421Z,100772.19
2018-06-22T21:58:09.989Z,100774.11
2018-06-22T22:00:47.375Z,100761.30
2018-06-22T22:03:26.820Z,100779.72
2018-06-22T22:06:01.902Z,100771.44
2018-06-22T22:08:38.404Z,100788.77
2018-06-22T22:11:12.441Z,100787.72
2018-06-22T22:13:48.586Z,100778.86
2018-06-22T22:16:21.876Z,100776.33
2018-06-22T22:18:59.930Z,100777.80
2018-06-22T22:21:36.283Z,100781.28
2018-06-22T22:24:13.461Z,100776.94
2018-06-22T22:27:02.358Z,100774.41
2018-06-22T22:29:48.793Z,100771.22
2018-06-22T22:32:25.676Z,100774.30
2018-06-22T22:35:04.810Z,100763.85
2018-06-22T22:37:42.104Z,100771.95
2018-06-22T22:43:04.803Z,100778.23
2018-06-22T22:45:48.421Z,100770.06
2018-06-22T22:48:24.409Z,100758.73
2018-06-22T22:51:00.585Z,100769.56
2018-06-22T22:53:38.181Z,100765.02
2018-06-22T22:56:12.115Z,100774.75
2018-06-22T22:58:47.849Z,100761.50
2018-06-22T23:01:29.784Z,100777.86
2018-06-22T23:04:08.453Z,100777.41
2018-06-22T23:06:45.424Z,100777.92
2018-06-22T23:09:22.698Z,100772.72
2018-06-22T23:12:01.625Z,100772.20
2018-06-22T23:14:38.624Z,100776.39
2018-06-22T23:17:15.640Z,100766.37
2018-06-22T23:19:56.102Z,100772.40
2018-06-22T23:22:42.709Z,100777.80
2018-06-22T23:25:18.319Z,100779.34
2018-06-22T23:27:52.432Z,100755.58
2018-06-22T23:30:30.592Z,100770.20
2018-06-22T23:33:04.685Z,100767.38
2018-06-22T23:35:42.252Z,100766.88
2018-06-22T23:38:16.905Z,100763.20
2018-06-22T23:40:53.328Z,100770.08
2018-06-22T23:43:30.378Z,100759.92
2018-06-22T23:46:07.043Z,100763.77
2018-06-22T23:48:41.897Z,100753.28
2018-06-22T23:51:16.864Z,100753.38
2018-06-22T23:53:53.131Z,100754.45
2018-06-22T23:56:32.758Z,100755.16
2018-06-22T23:59:07.073Z,100756.19
